Time;durP1;ratioP1;P1;durP2;ratioP2;P2;SDS_P1;SDS_P2;PMS_P1;PMS_P2;Temp;Humidity;BMP_temperature;BMP_pressure;BME280_temperature;BME280_humidity;BME280_pressure;Samples;Min_cycle;Max_cycle;Signal;HPM_P1;HPM_P2
2023/10/30 00:02:17;;;;;;;6.60;3.80;;;;;;;12.90;80.83;99420.45;108963;277;38862;-70
2023/10/30 00:04:51;;;;;;;5.50;3.60;;;;;;;12.91;80.83;99438.27;108918;277;39624;-68
2023/10/30 00:07:27;;;;;;;7.20;3.80;;;;;;;12.93;80.92;99430.83;108991;271;38476;-69
2023/10/30 00:10:06;;;;;;;7.60;4.00;;;;;;;12.93;80.95;99435.89;108969;277;38510;-67
2023/10/30 00:12:43;;;;;;;7.00;4.20;;;;;;;12.93;80.82;99439.54;108998;277;38331;-72
2023/10/30 00:15:18;;;;;;;8.50;4.60;;;;;;;12.95;80.82;99435.77;108917;277;38779;-72
2023/10/30 00:17:52;;;;;;;6.00;4.10;;;;;;;12.97;80.90;99424.46;109006;277;39926;-72
2023/10/30 00:20:26;;;;;;;8.40;3.90;;;;;;;12.97;80.84;99441.09;108938;277;38155;-72
2023/10/30 00:23:00;;;;;;;6.60;4.10;;;;;;;12.97;80.79;99452.09;108957;277;39584;-68
2023/10/30 00:25:35;;;;;;;10.50;4.00;;;;;;;12.96;80.82;99450.91;108922;277;38684;-68
2023/10/30 00:28:13;;;;;;;8.10;3.60;;;;;;;12.96;80.72;99465.10;108983;277;38767;-68
2023/10/30 00:30:57;;;;;;;5.80;3.70;;;;;;;12.94;80.65;99468.72;108953;277;38570;-68
2023/10/30 00:33:41;;;;;;;9.10;4.10;;;;;;;12.89;80.82;99475.29;108962;277;38548;-68
2023/10/30 00:36:20;;;;;;;6.50;4.00;;;;;;;12.83;80.73;99485.35;108920;277;40339;-68
2023/10/30 00:38:56;;;;;;;6.90;4.30;;;;;;;12.78;80.96;99494.73;108992;277;39949;-68
2023/10/30 00:41:39;;;;;;;9.00;3.80;;;;;;;12.73;81.24;99486.13;108942;277;39533;-68
2023/10/30 00:44:17;;;;;;;8.10;3.90;;;;;;;12.72;81.25;99481.27;108957;277;39217;-71
2023/10/30 00:46:53;;;;;;;6.30;3.80;;;;;;;12.72;81.42;99483.75;108942;277;38742;-72
2023/10/30 00:49:29;;;;;;;6.10;3.60;;;;;;;12.71;81.52;99480.81;108976;277;38598;-72
2023/10/30 00:52:03;;;;;;;6.10;3.60;;;;;;;12.71;81.66;99475.58;108990;277;38863;-71
2023/10/30 00:54:40;;;;;;;8.70;4.30;;;;;;;12.70;81.84;99472.85;109004;277;38592;-73
2023/10/30 00:57:15;;;;;;;7.00;3.80;;;;;;;12.69;81.91;99475.02;108973;277;39911;-72
2023/10/30 00:59:49;;;;;;;5.60;3.70;;;;;;;12.71;81.99;99478.38;108959;277;39367;-73
2023/10/30 01:02:24;;;;;;;6.50;3.80;;;;;;;12.73;81.99;99481.41;109010;277;38793;-72
2023/10/30 01:05:00;;;;;;;5.90;3.50;;;;;;;12.73;82.07;99492.04;109004;277;38809;-71
2023/10/30 01:07:34;;;;;;;7.40;4.20;;;;;;;12.74;82.12;99491.28;109005;277;41447;-71
2023/10/30 01:10:13;;;;;;;9.80;3.60;;;;;;;12.74;82.24;99479.08;108940;277;39156;-72
2023/10/30 01:12:46;;;;;;;8.70;3.60;;;;;;;12.71;82.23;99465.77;108990;277;38480;-69
2023/10/30 01:15:26;;;;;;;7.60;3.60;;;;;;;12.69;82.28;99458.70;108944;277;38137;-68
2023/10/30 01:18:03;;;;;;;8.00;3.50;;;;;;;12.70;82.24;99453.58;108978;277;38778;-69
2023/10/30 01:20:46;;;;;;;6.50;3.50;;;;;;;12.69;82.34;99455.73;108969;277;38338;-68
2023/10/30 01:23:25;;;;;;;5.70;4.00;;;;;;;12.67;82.34;99462.67;108962;277;39887;-67
2023/10/30 01:26:04;;;;;;;7.00;3.90;;;;;;;12.65;82.35;99454.39;108988;277;38257;-68
2023/10/30 01:28:39;;;;;;;12.00;4.10;;;;;;;12.61;82.38;99446.27;109007;277;38471;-70
2023/10/30 01:31:12;;;;;;;7.70;3.80;;;;;;;12.59;82.37;99448.44;108920;277;38185;-73
2023/10/30 01:33:50;;;;;;;7.00;3.80;;;;;;;12.59;82.53;99447.27;108936;277;38289;-67
2023/10/30 01:36:34;;;;;;;9.00;4.50;;;;;;;12.58;82.53;99448.88;108955;277;39641;-68
2023/10/30 01:39:15;;;;;;;6.10;3.60;;;;;;;12.54;82.40;99453.33;108943;277;38406;-69
2023/10/30 01:41:58;;;;;;;7.50;4.20;;;;;;;12.47;82.48;99449.56;108940;277;39906;-68
2023/10/30 01:44:36;;;;;;;5.50;3.30;;;;;;;12.39;82.41;99436.38;108933;277;38852;-68
2023/10/30 01:47:22;;;;;;;6.30;3.80;;;;;;;12.35;82.58;99424.73;108948;277;39189;-69
2023/10/30 01:49:56;;;;;;;8.80;4.00;;;;;;;12.31;82.56;99418.36;108987;277;38908;-71
2023/10/30 01:52:31;;;;;;;8.40;5.00;;;;;;;12.26;82.65;99421.11;108879;277;175311;-71
2023/10/30 01:55:05;;;;;;;9.20;5.20;;;;;;;12.20;82.63;99420.08;108959;277;38271;-71
2023/10/30 01:57:39;;;;;;;9.10;5.70;;;;;;;12.13;82.88;99432.69;109010;277;39724;-71
2023/10/30 02:00:22;;;;;;;9.50;6.50;;;;;;;12.10;83.09;99429.57;109027;273;38301;-71
2023/10/30 02:03:01;;;;;;;13.50;10.80;;;;;;;12.08;83.25;99432.26;109017;273;39421;-71
2023/10/30 02:05:38;;;;;;;15.90;10.20;;;;;;;12.07;83.20;99431.17;109022;277;38630;-71
2023/10/30 02:08:14;;;;;;;12.30;9.70;;;;;;;12.06;83.54;99433.14;109041;277;39669;-69
2023/10/30 02:10:58;;;;;;;10.40;7.70;;;;;;;12.05;83.69;99431.23;108927;277;38167;-69
2023/10/30 02:13:33;;;;;;;8.90;6.20;;;;;;;12.07;83.64;99441.27;108953;277;38305;-72
2023/10/30 02:16:08;;;;;;;8.00;5.60;;;;;;;12.06;83.67;99437.46;109028;277;39333;-71
2023/10/30 02:18:42;;;;;;;7.70;4.60;;;;;;;12.07;83.71;99444.23;108987;277;38164;-71
2023/10/30 02:21:17;;;;;;;7.60;4.40;;;;;;;12.08;83.76;99449.08;108977;277;39721;-72
2023/10/30 02:23:51;;;;;;;11.10;5.10;;;;;;;12.05;83.70;99449.08;108995;277;38558;-71
2023/10/30 02:26:25;;;;;;;7.20;3.80;;;;;;;12.05;83.65;99461.88;108963;277;39961;-72
2023/10/30 02:29:03;;;;;;;9.00;4.10;;;;;;;12.04;83.62;99463.14;108956;277;39104;-69
2023/10/30 02:31:41;;;;;;;8.10;4.80;;;;;;;12.03;83.72;99463.17;108952;277;39069;-69
2023/10/30 02:34:19;;;;;;;9.40;4.20;;;;;;;12.02;83.71;99457.45;109005;277;39067;-71
2023/10/30 02:36:56;;;;;;;7.20;4.20;;;;;;;11.98;83.76;99453.86;108982;277;39400;-72
2023/10/30 02:39:34;;;;;;;7.90;3.80;;;;;;;11.98;83.66;99460.36;108977;277;38160;-71
2023/10/30 02:42:09;;;;;;;6.40;4.10;;;;;;;11.96;83.64;99457.16;108981;277;39909;-71
2023/10/30 02:44:47;;;;;;;5.60;4.00;;;;;;;11.90;83.66;99455.55;108982;277;39387;-71
2023/10/30 02:47:23;;;;;;;8.30;4.70;;;;;;;11.87;83.92;99449.09;109019;277;38723;-71
2023/10/30 02:49:57;;;;;;;9.40;4.50;;;;;;;11.82;84.01;99441.88;108395;277;754540;-71
2023/10/30 02:52:36;;;;;;;6.30;4.10;;;;;;;11.80;84.13;99438.10;108978;277;38963;-71
2023/10/30 02:55:13;;;;;;;8.80;3.90;;;;;;;11.78;84.08;99430.52;108955;277;39257;-71
2023/10/30 02:57:51;;;;;;;8.00;4.20;;;;;;;11.76;84.32;99428.70;108972;277;38746;-67
2023/10/30 03:00:31;;;;;;;8.00;4.50;;;;;;;11.76;84.46;99437.48;108921;277;38457;-67
2023/10/30 03:03:06;;;;;;;8.40;4.60;;;;;;;11.74;84.69;99434.77;108980;277;39801;-71
2023/10/30 03:05:40;;;;;;;7.50;4.40;;;;;;;11.73;84.72;99433.45;108993;277;38173;-71
2023/10/30 03:08:14;;;;;;;7.40;4.20;;;;;;;11.75;84.82;99433.35;108324;277;913695;-71
2023/10/30 03:10:48;;;;;;;7.40;3.90;;;;;;;11.78;84.98;99430.04;108951;277;38147;-71
2023/10/30 03:13:31;;;;;;;8.20;4.40;;;;;;;11.80;85.06;99427.99;108982;277;38369;-67
2023/10/30 03:16:09;;;;;;;7.40;3.70;;;;;;;11.81;85.17;99419.02;109001;277;38276;-67
2023/10/30 03:18:43;;;;;;;6.40;3.80;;;;;;;11.83;85.06;99410.20;108995;277;39787;-71
2023/10/30 03:21:17;;;;;;;7.40;4.10;;;;;;;11.85;85.08;99405.50;108961;277;38902;-71
2023/10/30 03:23:51;;;;;;;6.40;4.00;;;;;;;11.85;85.08;99401.30;109015;277;38480;-71
2023/10/30 03:26:26;;;;;;;8.80;4.00;;;;;;;11.86;85.10;99408.06;108923;277;39928;-72
2023/10/30 03:29:01;;;;;;;6.40;4.00;;;;;;;11.86;85.10;99415.23;108994;277;38640;-71
2023/10/30 03:31:37;;;;;;;5.00;3.50;;;;;;;11.87;85.32;99417.79;108994;277;38259;-71
2023/10/30 03:34:11;;;;;;;7.20;4.10;;;;;;;11.91;85.21;99416.88;109016;277;39897;-71
2023/10/30 03:36:46;;;;;;;9.30;3.90;;;;;;;11.94;85.22;99405.69;108998;277;37926;-71
2023/10/30 03:39:24;;;;;;;7.40;3.90;;;;;;;11.93;85.18;99399.11;108993;277;39347;-67
2023/10/30 03:42:03;;;;;;;8.70;4.00;;;;;;;11.89;85.02;99401.43;108925;277;38770;-67
2023/10/30 03:44:41;;;;;;;8.70;3.80;;;;;;;11.87;85.14;99405.40;108957;277;38362;-72
2023/10/30 03:47:16;;;;;;;6.70;4.40;;;;;;;11.86;85.22;99401.06;108972;277;39630;-71
2023/10/30 03:49:51;;;;;;;6.00;3.60;;;;;;;11.85;85.18;99403.09;108958;277;40126;-72
2023/10/30 03:52:27;;;;;;;7.40;4.10;;;;;;;11.81;85.22;99407.98;109016;277;38374;-71
2023/10/30 03:55:03;;;;;;;6.80;4.30;;;;;;;11.76;85.35;99410.23;108939;277;38148;-71
2023/10/30 03:57:40;;;;;;;7.00;3.70;;;;;;;11.73;85.25;99411.83;108969;277;38360;-73
2023/10/30 04:00:20;;;;;;;7.90;4.30;;;;;;;11.68;85.21;99415.58;108963;277;38221;-71
2023/10/30 04:02:54;;;;;;;7.50;3.80;;;;;;;11.62;85.47;99421.66;108972;277;38707;-71
2023/10/30 04:05:28;;;;;;;7.40;4.20;;;;;;;11.57;85.46;99415.83;108965;277;38462;-72
2023/10/30 04:08:02;;;;;;;6.40;4.10;;;;;;;11.52;85.83;99402.15;108967;277;40329;-68
2023/10/30 04:10:41;;;;;;;7.40;3.90;;;;;;;11.50;85.92;99403.35;108948;277;39672;-67
2023/10/30 04:13:20;;;;;;;6.80;3.70;;;;;;;11.51;86.20;99410.11;108961;277;39224;-71
2023/10/30 04:15:56;;;;;;;7.00;3.60;;;;;;;11.50;86.23;99409.05;108982;277;39628;-71
2023/10/30 04:18:34;;;;;;;8.30;3.90;;;;;;;11.47;86.29;99408.04;108991;277;39234;-68
2023/10/30 04:21:16;;;;;;;6.70;3.90;;;;;;;11.43;86.17;99422.77;108943;277;38899;-67
2023/10/30 04:23:50;;;;;;;6.30;3.80;;;;;;;11.40;86.29;99422.24;109007;277;38973;-71
2023/10/30 04:26:24;;;;;;;6.50;3.80;;;;;;;11.39;86.36;99427.16;108946;277;38890;-72
2023/10/30 04:29:04;;;;;;;5.60;3.80;;;;;;;11.37;86.41;99423.60;108982;277;39650;-68
2023/10/30 04:31:40;;;;;;;8.00;4.20;;;;;;;11.33;86.55;99425.44;108967;277;38492;-67
2023/10/30 04:34:19;;;;;;;6.90;3.70;;;;;;;11.28;86.62;99432.85;108948;277;38449;-71
2023/10/30 04:36:53;;;;;;;6.90;3.60;;;;;;;11.25;86.73;99438.80;108960;277;39801;-71
2023/10/30 04:39:29;;;;;;;5.90;3.60;;;;;;;11.25;86.88;99439.68;108941;277;39046;-67
2023/10/30 04:42:07;;;;;;;9.10;5.10;;;;;;;11.23;87.09;99442.92;108929;277;38758;-67
2023/10/30 04:44:42;;;;;;;6.90;3.50;;;;;;;11.23;87.36;99435.91;109000;277;38904;-72
2023/10/30 04:47:20;;;;;;;6.70;3.80;;;;;;;11.20;87.36;99423.87;108316;277;901159;-69
2023/10/30 04:49:54;;;;;;;5.80;3.60;;;;;;;11.19;87.48;99426.91;108996;277;38010;-73
2023/10/30 04:52:29;;;;;;;7.60;4.10;;;;;;;11.18;87.38;99448.79;109004;277;38337;-73
2023/10/30 04:55:03;;;;;;;7.50;3.80;;;;;;;11.18;87.52;99450.03;108938;277;38233;-75
2023/10/30 04:57:38;;;;;;;7.40;3.80;;;;;;;11.15;87.54;99437.97;108978;277;39128;-72
2023/10/30 05:00:16;;;;;;;6.10;3.50;;;;;;;11.11;87.77;99440.25;108988;277;38637;-73
2023/10/30 05:02:50;;;;;;;6.10;3.60;;;;;;;11.10;87.73;99438.05;108980;277;38445;-72
2023/10/30 05:05:26;;;;;;;7.90;4.00;;;;;;;11.09;87.72;99438.11;108965;277;38160;-72
2023/10/30 05:08:01;;;;;;;10.20;4.10;;;;;;;11.08;87.80;99442.52;109022;277;38857;-72
2023/10/30 05:10:37;;;;;;;6.60;3.70;;;;;;;11.08;87.99;99462.42;108928;277;38408;-72
2023/10/30 05:13:11;;;;;;;6.10;3.60;;;;;;;11.04;87.90;99477.15;109005;277;39549;-72
2023/10/30 05:15:48;;;;;;;5.80;3.50;;;;;;;11.00;87.66;99488.18;108982;277;38530;-72
2023/10/30 05:18:24;;;;;;;5.80;3.70;;;;;;;10.96;87.58;99495.53;108978;277;38495;-73
2023/10/30 05:20:58;;;;;;;6.20;3.70;;;;;;;10.93;87.89;99492.91;108997;277;38888;-74
2023/10/30 05:23:32;;;;;;;5.50;4.10;;;;;;;10.92;88.27;99492.29;108994;277;38155;-72
2023/10/30 05:26:08;;;;;;;8.00;4.60;;;;;;;10.90;88.52;99483.48;108945;277;38398;-72
2023/10/30 05:28:47;;;;;;;5.50;3.60;;;;;;;10.93;88.92;99475.80;108998;277;38755;-73
2023/10/30 05:31:21;;;;;;;4.30;3.30;;;;;;;10.95;88.91;99475.33;109007;277;38890;-73
2023/10/30 05:33:59;;;;;;;8.90;4.40;;;;;;;10.97;88.91;99473.16;108986;277;38747;-69
2023/10/30 05:36:33;;;;;;;6.40;3.90;;;;;;;10.97;89.09;99482.70;108845;277;175354;-68
2023/10/30 05:39:07;;;;;;;6.40;3.50;;;;;;;10.98;89.20;99492.13;109002;277;38593;-72
2023/10/30 05:41:41;;;;;;;7.50;3.60;;;;;;;10.99;89.08;99494.50;108986;277;38229;-72
2023/10/30 05:44:17;;;;;;;8.40;3.80;;;;;;;11.02;89.18;99507.39;109002;277;39034;-68
2023/10/30 05:46:59;;;;;;;5.80;3.60;;;;;;;11.03;89.13;99505.09;108933;277;38258;-68
2023/10/30 05:49:37;;;;;;;8.30;3.60;;;;;;;11.03;88.99;99500.02;109013;277;39334;-69
2023/10/30 05:52:19;;;;;;;9.40;3.50;;;;;;;11.02;89.33;99495.37;108917;277;38450;-68
2023/10/30 05:54:53;;;;;;;10.50;4.20;;;;;;;11.04;89.19;99508.38;109028;277;39615;-72
2023/10/30 05:57:29;;;;;;;5.90;4.20;;;;;;;11.05;89.20;99520.36;109001;277;39921;-71
2023/10/30 06:00:05;;;;;;;5.70;3.90;;;;;;;11.06;89.31;99516.59;108968;277;38470;-73
2023/10/30 06:02:40;;;;;;;8.80;4.60;;;;;;;11.07;89.33;99522.01;108984;277;39401;-70
2023/10/30 06:05:15;;;;;;;5.70;3.70;;;;;;;11.06;89.19;99532.83;108988;277;38936;-68
2023/10/30 06:07:52;;;;;;;9.10;3.90;;;;;;;11.07;89.09;99536.31;109030;277;38895;-72
2023/10/30 06:10:26;;;;;;;6.50;4.20;;;;;;;11.08;89.28;99537.65;108984;277;38967;-72
2023/10/30 06:13:08;;;;;;;8.90;4.30;;;;;;;11.11;89.37;99541.15;108971;277;38248;-69
2023/10/30 06:15:45;;;;;;;7.10;3.80;;;;;;;11.12;89.33;99534.10;109014;277;38287;-68
2023/10/30 06:18:36;;;;;;;7.60;3.50;;;;;;;11.12;89.28;99547.02;108962;277;38173;-69
2023/10/30 06:21:18;;;;;;;12.60;3.80;;;;;;;11.14;89.27;99550.75;108933;277;39322;-69
2023/10/30 06:23:51;;;;;;;7.70;3.70;;;;;;;11.18;89.28;99551.80;109049;277;38405;-74
2023/10/30 06:26:27;;;;;;;5.60;3.60;;;;;;;11.21;89.47;99561.20;108993;277;38558;-73
2023/10/30 06:29:05;;;;;;;6.50;3.80;;;;;;;11.25;89.48;99562.41;109005;277;38182;-70
2023/10/30 06:31:41;;;;;;;5.20;3.40;;;;;;;11.27;89.65;99561.05;108954;277;38235;-68
2023/10/30 06:34:15;;;;;;;8.00;3.50;;;;;;;11.33;89.80;99567.19;109005;277;38955;-73
2023/10/30 06:36:49;;;;;;;5.90;3.80;;;;;;;11.43;89.93;99571.40;108998;277;38733;-73
2023/10/30 06:39:25;;;;;;;6.80;4.20;;;;;;;11.52;89.93;99573.52;108971;277;38156;-69
2023/10/30 06:42:02;;;;;;;5.30;3.70;;;;;;;11.59;89.92;99575.38;108939;277;38741;-68
2023/10/30 06:44:36;;;;;;;7.60;3.90;;;;;;;11.66;89.95;99574.64;109032;277;39716;-72
2023/10/30 06:47:13;;;;;;;5.20;3.90;;;;;;;11.75;89.79;99570.99;108949;277;38463;-73
2023/10/30 06:49:47;;;;;;;8.50;4.60;;;;;;;11.83;89.58;99560.11;108996;277;39045;-72
2023/10/30 06:52:26;;;;;;;8.20;4.40;;;;;;;11.93;89.48;99559.94;108937;277;38674;-70
2023/10/30 06:55:00;;;;;;;8.70;4.40;;;;;;;11.99;89.37;99563.24;108929;277;38777;-70
2023/10/30 06:57:37;;;;;;;6.80;4.20;;;;;;;12.07;89.63;99559.27;109022;277;39444;-69
2023/10/30 07:00:14;;;;;;;10.00;4.10;;;;;;;12.18;89.61;99564.27;108971;277;38555;-68
2023/10/30 07:02:48;;;;;;;6.20;4.30;;;;;;;12.32;89.65;99562.04;109025;277;39054;-68
2023/10/30 07:05:27;;;;;;;7.00;3.90;;;;;;;12.49;89.76;99574.19;108975;277;39630;-68
2023/10/30 07:08:05;;;;;;;8.60;3.90;;;;;;;12.59;89.34;99575.46;108986;276;38196;-68
2023/10/30 07:10:42;;;;;;;8.40;4.00;;;;;;;12.69;89.03;99572.64;108974;277;39889;-70
2023/10/30 07:13:16;;;;;;;5.80;3.60;;;;;;;12.76;88.68;99573.10;108997;277;38173;-70
2023/10/30 07:15:50;;;;;;;6.40;3.10;;;;;;;12.83;88.30;99574.41;108984;277;38533;-68
2023/10/30 07:18:28;;;;;;;6.50;3.40;;;;;;;12.92;88.02;99578.08;109043;277;39938;-72
2023/10/30 07:21:04;;;;;;;5.30;3.70;;;;;;;13.02;87.77;99581.35;108969;277;38343;-72
2023/10/30 07:23:38;;;;;;;5.60;3.40;;;;;;;13.10;87.70;99593.11;108957;277;38141;-71
2023/10/30 07:26:12;;;;;;;9.50;4.10;;;;;;;13.20;87.59;99596.36;108965;277;38171;-70
2023/10/30 07:28:48;;;;;;;6.60;3.40;;;;;;;13.37;87.40;99597.41;108973;269;38169;-71
2023/10/30 07:31:23;;;;;;;5.40;3.40;;;;;;;13.63;87.21;99592.95;108953;270;38230;-73
2023/10/30 07:33:58;;;;;;;6.60;3.30;;;;;;;13.97;86.64;99598.19;108974;277;39091;-72
2023/10/30 07:36:31;;;;;;;6.30;3.50;;;;;;;14.30;85.96;99607.99;108953;277;39705;-72
2023/10/30 07:39:07;;;;;;;7.70;3.50;;;;;;;14.66;85.36;99613.15;109008;277;38352;-73
2023/10/30 07:41:42;;;;;;;5.20;3.30;;;;;;;15.09;85.66;99613.22;108951;277;39188;-73
2023/10/30 07:44:19;;;;;;;5.80;3.20;;;;;;;15.47;84.06;99616.92;108993;277;38541;-72
2023/10/30 07:46:53;;;;;;;7.50;3.30;;;;;;;15.92;83.25;99615.52;108999;277;38822;-73
2023/10/30 07:49:29;;;;;;;4.40;2.90;;;;;;;16.29;81.68;99615.46;109028;277;38614;-72
2023/10/30 07:52:06;;;;;;;4.80;3.20;;;;;;;16.66;80.59;99599.33;109020;277;38179;-72
2023/10/30 07:54:42;;;;;;;4.90;3.00;;;;;;;16.82;78.11;99593.56;109004;277;38180;-73
2023/10/30 07:57:16;;;;;;;6.30;2.90;;;;;;;17.08;78.48;99599.95;108930;277;39472;-71
2023/10/30 07:59:50;;;;;;;6.90;3.10;;;;;;;17.46;76.62;99603.89;108993;277;39647;-73
2023/10/30 08:02:26;;;;;;;4.70;2.90;;;;;;;17.99;75.17;99602.36;109026;277;38722;-70
2023/10/30 08:05:00;;;;;;;4.50;2.40;;;;;;;18.35;72.49;99603.96;108987;277;38149;-69
2023/10/30 08:07:36;;;;;;;4.00;2.30;;;;;;;18.46;70.72;99602.56;109024;277;38426;-73
2023/10/30 08:10:15;;;;;;;4.80;2.90;;;;;;;18.52;70.20;99595.50;109004;277;38322;-76
2023/10/30 08:12:50;;;;;;;3.40;2.30;;;;;;;18.56;69.08;99601.88;108962;277;39763;-70
2023/10/30 08:15:27;;;;;;;5.40;2.80;;;;;;;18.48;68.16;99601.16;109009;277;38504;-73
2023/10/30 08:18:03;;;;;;;6.30;2.60;;;;;;;18.37;67.87;99596.81;108923;277;38303;-74
2023/10/30 08:20:38;;;;;;;3.80;2.70;;;;;;;18.19;67.49;99595.73;108945;277;38723;-73
2023/10/30 08:23:15;;;;;;;5.60;2.40;;;;;;;18.01;67.72;99603.90;109054;277;38516;-71
2023/10/30 08:25:53;;;;;;;3.60;2.40;;;;;;;17.87;67.77;99613.88;108992;277;39346;-71
2023/10/30 08:28:29;;;;;;;4.70;2.70;;;;;;;17.76;67.84;99620.77;108978;277;38706;-74
2023/10/30 08:31:04;;;;;;;6.70;2.50;;;;;;;17.72;68.26;99617.20;109010;277;38180;-74
2023/10/30 08:33:43;;;;;;;5.10;3.00;;;;;;;17.72;68.39;99620.75;108870;277;174815;-74
2023/10/30 08:36:28;;;;;;;4.00;2.30;;;;;;;17.70;68.27;99629.36;109050;277;40552;-75
2023/10/30 08:39:04;;;;;;;3.20;2.30;;;;;;;17.65;68.07;99632.02;108883;277;175542;-70
2023/10/30 08:41:39;;;;;;;3.50;2.30;;;;;;;17.60;67.81;99629.11;108942;277;41649;-70
2023/10/30 08:44:14;;;;;;;3.30;2.40;;;;;;;17.53;67.86;99630.50;109035;277;39589;-70
2023/10/30 08:46:48;;;;;;;4.10;2.30;;;;;;;17.47;67.94;99633.28;108971;277;38609;-71
2023/10/30 08:49:24;;;;;;;4.20;2.20;;;;;;;17.44;68.12;99636.11;108299;277;894285;-73
2023/10/30 08:51:59;;;;;;;4.80;3.20;;;;;;;17.41;68.11;99638.66;109035;277;38733;-73
2023/10/30 08:54:36;;;;;;;4.10;3.50;;;;;;;17.40;67.62;99639.64;109000;277;39432;-71
2023/10/30 08:57:17;;;;;;;6.10;2.60;;;;;;;17.43;68.08;99641.88;108931;277;39596;-69
2023/10/30 08:59:51;;;;;;;3.80;2.40;;;;;;;17.45;67.94;99641.86;108967;277;38234;-70
2023/10/30 09:02:25;;;;;;;4.00;2.50;;;;;;;17.44;68.09;99652.73;109043;277;38481;-73
2023/10/30 09:05:01;;;;;;;4.60;2.40;;;;;;;17.45;68.21;99655.48;108983;277;39530;-73
2023/10/30 09:07:34;;;;;;;5.70;2.40;;;;;;;17.48;68.00;99657.13;109019;277;38349;-73
2023/10/30 09:10:13;;;;;;;5.30;2.30;;;;;;;17.53;68.06;99655.00;108983;277;38267;-74
2023/10/30 09:12:49;;;;;;;4.10;2.40;;;;;;;17.62;67.98;99662.77;108992;277;39461;-73
2023/10/30 09:15:28;;;;;;;7.20;3.10;;;;;;;17.71;67.38;99661.19;108959;277;38745;-75
2023/10/30 09:18:02;;;;;;;6.60;2.40;;;;;;;17.79;67.17;99664.64;108984;277;40360;-74
2023/10/30 09:20:36;;;;;;;4.80;2.20;;;;;;;17.89;67.23;99666.98;108977;277;39736;-73
2023/10/30 09:23:10;;;;;;;4.90;2.30;;;;;;;18.07;67.08;99674.95;109019;277;38708;-69
2023/10/30 09:25:44;;;;;;;4.70;2.60;;;;;;;18.30;66.64;99684.90;108913;277;38442;-71
2023/10/30 09:28:18;;;;;;;8.00;2.70;;;;;;;18.56;65.86;99684.36;108962;277;39618;-70
2023/10/30 09:30:53;;;;;;;5.10;2.60;;;;;;;18.85;65.76;99692.45;108925;277;38515;-71
2023/10/30 09:33:27;;;;;;;4.40;2.40;;;;;;;19.17;64.39;99689.05;108836;274;175160;-74
2023/10/30 09:36:01;;;;;;;4.80;2.80;;;;;;;19.47;64.12;99692.83;108981;277;38156;-75
2023/10/30 09:38:35;;;;;;;5.10;2.60;;;;;;;19.69;63.74;99690.40;108990;277;39800;-74
2023/10/30 09:41:11;;;;;;;4.00;2.50;;;;;;;19.94;63.35;99700.29;108951;277;38172;-74
2023/10/30 09:43:45;;;;;;;5.50;2.50;;;;;;;20.20;62.39;99706.68;108978;277;38156;-73
2023/10/30 09:46:25;;;;;;;5.20;2.40;;;;;;;20.44;61.83;99705.25;108973;277;38759;-73
2023/10/30 09:48:59;;;;;;;3.40;2.00;;;;;;;20.61;61.00;99712.41;108974;277;41711;-70
2023/10/30 09:51:35;;;;;;;3.50;2.10;;;;;;;20.74;60.11;99716.59;108943;277;39603;-69
2023/10/30 09:54:10;;;;;;;4.60;2.40;;;;;;;20.77;59.64;99711.66;108976;277;39478;-75
2023/10/30 09:56:45;;;;;;;5.20;2.40;;;;;;;20.79;59.24;99712.23;108856;277;174788;-75
2023/10/30 09:59:20;;;;;;;4.30;2.40;;;;;;;20.76;59.54;99710.16;109035;277;38559;-75
2023/10/30 10:01:57;;;;;;;3.30;2.30;;;;;;;20.69;59.11;99704.58;108992;277;38623;-75
2023/10/30 10:04:34;;;;;;;3.80;2.10;;;;;;;20.52;58.71;99699.35;108896;277;174488;-74
2023/10/30 10:07:15;;;;;;;3.30;1.80;;;;;;;20.27;58.49;99701.64;109075;277;38448;-73
2023/10/30 10:10:08;;;;;;;4.90;2.00;;;;;;;19.99;58.35;99700.16;109078;277;38676;-73
2023/10/30 10:12:44;;;;;;;4.30;2.10;;;;;;;19.71;58.98;99707.40;109105;277;38451;-71
2023/10/30 10:15:21;;;;;;;3.10;1.90;;;;;;;19.50;59.18;99720.66;108904;277;174915;-69
2023/10/30 10:17:56;;;;;;;3.70;2.00;;;;;;;19.31;59.76;99727.11;109121;277;39929;-73
2023/10/30 10:20:31;;;;;;;4.10;2.10;;;;;;;19.14;59.69;99733.80;109042;277;38453;-74
2023/10/30 10:23:05;;;;;;;5.40;2.30;;;;;;;18.96;59.90;99733.73;109139;278;38273;-74
2023/10/30 10:25:45;;;;;;;5.10;1.90;;;;;;;18.78;60.18;99731.90;109062;277;40096;-73
2023/10/30 10:28:25;;;;;;;2.90;1.60;;;;;;;18.59;60.24;99729.68;108992;277;188852;-70
2023/10/30 10:31:02;;;;;;;4.30;1.90;;;;;;;18.42;60.62;99728.21;109065;277;39678;-69
2023/10/30 10:33:42;;;;;;;2.90;1.90;;;;;;;18.25;60.95;99728.92;109080;277;38565;-73
2023/10/30 10:36:19;;;;;;;5.60;2.00;;;;;;;18.09;61.23;99727.71;109021;278;38640;-69
2023/10/30 10:39:03;;;;;;;4.50;1.90;;;;;;;17.98;61.50;99716.77;108955;277;174988;-68
2023/10/30 10:41:46;;;;;;;4.20;2.10;;;;;;;17.86;61.84;99708.17;109073;278;39728;-68
2023/10/30 10:44:22;;;;;;;4.50;1.90;;;;;;;17.74;62.10;99701.67;109073;278;38447;-68
2023/10/30 10:46:59;;;;;;;4.90;1.90;;;;;;;17.63;62.55;99704.17;109042;277;38628;-70
2023/10/30 10:49:33;;;;;;;4.60;2.40;;;;;;;17.56;63.00;99699.80;108514;278;630892;-68
2023/10/30 10:52:09;;;;;;;5.80;2.20;;;;;;;17.50;63.42;99692.11;109018;278;38718;-68
2023/10/30 10:54:51;;;;;;;4.80;2.30;;;;;;;17.44;63.63;99691.90;109092;277;38355;-68
2023/10/30 10:57:26;;;;;;;3.90;2.00;;;;;;;17.40;63.87;99702.02;108986;277;38485;-70
2023/10/30 11:00:06;;;;;;;3.50;2.10;;;;;;;17.36;64.05;99701.62;108969;277;38514;-68
2023/10/30 11:02:41;;;;;;;5.70;2.10;;;;;;;17.33;64.55;99702.55;108973;277;38684;-69
2023/10/30 11:05:26;;;;;;;5.00;2.00;;;;;;;17.30;64.66;99701.59;108915;277;39362;-68
2023/10/30 11:08:03;;;;;;;3.40;1.80;;;;;;;17.26;64.62;99702.05;108985;277;39607;-73
2023/10/30 11:10:45;;;;;;;3.30;2.00;;;;;;;17.22;64.76;99700.96;109004;277;38488;-72
2023/10/30 11:13:25;;;;;;;4.50;1.90;;;;;;;17.18;64.82;99693.53;109002;277;39520;-69
2023/10/30 11:16:05;;;;;;;3.80;1.80;;;;;;;17.15;64.91;99694.83;108931;277;38737;-68
2023/10/30 11:18:46;;;;;;;4.20;2.20;;;;;;;17.13;65.10;99702.15;109008;277;38291;-73
2023/10/30 11:21:25;;;;;;;4.00;2.10;;;;;;;17.11;65.12;99701.98;108964;277;38560;-68
2023/10/30 11:24:00;;;;;;;3.30;2.10;;;;;;;17.09;65.40;99705.70;108974;277;39620;-73
2023/10/30 11:26:43;;;;;;;3.00;1.80;;;;;;;17.07;65.49;99705.65;108938;277;38215;-73
2023/10/30 11:29:23;;;;;;;3.30;2.00;;;;;;;17.07;65.63;99707.44;109037;277;38857;-72
2023/10/30 11:32:05;;;;;;;4.00;2.00;;;;;;;17.04;65.43;99704.96;108961;277;38494;-73
2023/10/30 11:34:40;;;;;;;5.30;2.10;;;;;;;17.02;65.45;99710.55;108981;277;39948;-69
2023/10/30 11:37:21;;;;;;;4.60;1.80;;;;;;;17.00;65.22;99712.15;108977;277;39377;-70
2023/10/30 11:39:57;;;;;;;3.10;1.80;;;;;;;16.96;65.24;99717.90;108977;277;39630;-68
2023/10/30 11:42:39;;;;;;;4.80;1.80;;;;;;;16.94;65.29;99712.25;109010;275;38223;-70
2023/10/30 11:45:30;;;;;;;3.00;1.80;;;;;;;16.90;65.13;99714.33;108922;277;39363;-68
2023/10/30 11:48:06;;;;;;;2.90;2.00;;;;;;;16.84;65.01;99705.83;108964;277;38309;-72
2023/10/30 11:50:47;;;;;;;4.00;2.00;;;;;;;16.79;65.62;99703.72;108990;277;38348;-72
2023/10/30 11:53:23;;;;;;;5.00;2.20;;;;;;;16.73;65.48;99694.24;108971;277;38805;-73
2023/10/30 11:55:57;;;;;;;3.20;2.10;;;;;;;16.68;65.57;99679.27;108900;277;38241;-73
2023/10/30 11:58:33;;;;;;;4.60;2.10;;;;;;;16.67;65.63;99665.64;108958;277;38455;-73
2023/10/30 12:01:09;;;;;;;5.90;2.30;;;;;;;16.65;65.77;99660.27;108985;277;38380;-74
2023/10/30 12:03:46;;;;;;;3.80;1.80;;;;;;;16.63;65.89;99657.95;109009;277;39381;-73
2023/10/30 12:06:20;;;;;;;2.50;1.80;;;;;;;16.61;65.72;99657.98;108998;277;38679;-73
2023/10/30 12:08:57;;;;;;;4.30;2.20;;;;;;;16.57;65.71;99658.78;108965;277;38796;-73
2023/10/30 12:11:31;;;;;;;3.50;1.90;;;;;;;16.52;65.61;99667.59;108937;277;38429;-74
2023/10/30 12:14:06;;;;;;;4.20;2.20;;;;;;;16.48;65.98;99669.48;108948;277;39538;-68
2023/10/30 12:16:40;;;;;;;4.30;2.20;;;;;;;16.46;66.03;99663.95;108971;277;40012;-68